Time;durP1;ratioP1;P1;durP2;ratioP2;P2;SDS_P1;SDS_P2;PMS_P1;PMS_P2;Temp;Humidity;BMP_temperature;BMP_pressure;BME280_temperature;BME280_humidity;BME280_pressure;Samples;Min_cycle;Max_cycle;Signal;HPM_P1;HPM_P2
2023/07/03 00:00:20;;;;;;;19.77;11.37;;;19.70;55.30;;;;;;20829328;28;20241;-63
2023/07/03 00:10:22;;;;;;;23.80;11.40;;;19.50;55.60;;;;;;20829010;28;20239;-69
2023/07/03 00:20:24;;;;;;;24.10;11.37;;;19.40;55.90;;;;;;20828069;28;20229;-63
2023/07/03 00:30:26;;;;;;;21.63;11.13;;;19.30;56.00;;;;;;20828490;28;20212;-62
2023/07/03 00:40:28;;;;;;;20.27;10.57;;;19.30;56.30;;;;;;20827960;28;20246;-65
2023/07/03 00:50:29;;;;;;;21.20;10.43;;;19.20;56.50;;;;;;20827602;28;20246;-69
2023/07/03 01:00:39;;;;;;;21.53;10.77;;;19.10;56.70;;;;;;20839623;28;20331;-70
2023/07/03 01:10:41;;;;;;;20.70;10.93;;;19.10;57.10;;;;;;20808584;28;20708;-67
2023/07/03 01:21:09;;;;;;;20.47;10.47;;;19.00;57.30;;;;;;20758807;28;20676;-66
2023/07/03 01:31:14;;;;;;;20.70;10.03;;;19.00;57.50;;;;;;20760820;28;20244;-66
2023/07/03 01:41:18;;;;;;;20.43;9.90;;;18.90;57.80;;;;;;20757171;28;20299;-67
2023/07/03 01:51:31;;;;;;;19.57;10.47;;;18.90;58.00;;;;;;20754991;28;20219;-62
2023/07/03 02:01:57;;;;;;;19.27;9.47;;;18.80;58.20;;;;;;20755802;28;20239;-64
2023/07/03 02:11:59;;;;;;;24.00;10.40;;;18.80;58.40;;;;;;20753974;28;20334;-69
2023/07/03 02:22:01;;;;;;;20.50;10.30;;;18.70;58.70;;;;;;20753848;28;20257;-68
2023/07/03 02:32:09;;;;;;;19.70;9.93;;;18.70;58.90;;;;;;20753577;28;20237;-70
2023/07/03 02:42:10;;;;;;;24.47;10.87;;;18.60;59.30;;;;;;20752270;28;20305;-71
2023/07/03 02:52:12;;;;;;;19.37;10.00;;;18.50;59.80;;;;;;20751187;28;20257;-71
2023/07/03 03:02:14;;;;;;;22.00;10.20;;;18.30;60.20;;;;;;20751217;28;20305;-71
2023/07/03 03:12:16;;;;;;;21.10;10.30;;;18.30;60.70;;;;;;20750167;28;20660;-70
2023/07/03 03:22:18;;;;;;;19.50;9.93;;;18.20;61.00;;;;;;20749374;28;20731;-68
2023/07/03 03:32:19;;;;;;;23.27;10.43;;;18.20;61.40;;;;;;20749325;28;20245;-70
2023/07/03 03:42:22;;;;;;;20.30;10.17;;;18.20;61.80;;;;;;20748648;28;20207;-62
2023/07/03 03:52:23;;;;;;;22.57;10.70;;;18.30;61.90;;;;;;20748165;28;20268;-61
2023/07/03 04:02:25;;;;;;;20.60;10.57;;;18.40;62.00;;;;;;20748060;28;20293;-61
2023/07/03 04:12:28;;;;;;;19.30;9.73;;;18.50;62.00;;;;;;20750237;28;20744;-71
2023/07/03 04:22:29;;;;;;;22.83;9.87;;;18.60;62.10;;;;;;20747767;28;20297;-70
2023/07/03 04:32:31;;;;;;;18.33;10.00;;;18.60;62.20;;;;;;20755182;28;20260;-69
2023/07/03 04:42:34;;;;;;;22.97;10.47;;;18.70;62.40;;;;;;20761671;28;20211;-62
2023/07/03 04:52:38;;;;;;;19.73;9.90;;;18.70;62.50;;;;;;20759424;28;20328;-70
2023/07/03 05:02:42;;;;;;;17.70;9.00;;;18.80;62.80;;;;;;20758687;28;20206;-71
2023/07/03 05:12:44;;;;;;;22.37;10.70;;;19.00;63.70;;;;;;20759118;28;20242;-67
2023/07/03 05:22:46;;;;;;;20.20;10.13;;;19.30;63.80;;;;;;20760380;28;20265;-73
2023/07/03 05:32:48;;;;;;;19.77;10.10;;;19.50;63.80;;;;;;20798201;28;20239;-71
2023/07/03 05:42:50;;;;;;;17.93;9.97;;;19.60;63.50;;;;;;20755874;28;20220;-72
2023/07/03 05:52:53;;;;;;;18.57;9.43;;;19.80;63.50;;;;;;20755386;28;20236;-69
2023/07/03 06:02:55;;;;;;;18.97;9.57;;;19.90;63.20;;;;;;20755303;28;20275;-68
2023/07/03 06:12:57;;;;;;;19.37;9.37;;;19.90;62.90;;;;;;20769001;28;20674;-72
2023/07/03 06:22:59;;;;;;;22.00;10.10;;;20.00;62.80;;;;;;20753230;28;20292;-70
2023/07/03 06:33:01;;;;;;;18.43;9.50;;;20.00;62.80;;;;;;20752495;28;20618;-64
2023/07/03 06:43:03;;;;;;;21.40;8.60;;;20.00;62.80;;;;;;20751330;28;20303;-70
2023/07/03 06:53:05;;;;;;;20.70;9.30;;;20.20;62.60;;;;;;20750319;28;20718;-68
2023/07/03 07:03:06;;;;;;;20.97;8.60;;;20.20;62.30;;;;;;20752106;28;20244;-73
2023/07/03 07:13:09;;;;;;;15.87;7.03;;;20.50;61.30;;;;;;20749783;28;20244;-64
2023/07/03 07:23:11;;;;;;;20.20;7.53;;;20.60;60.40;;;;;;20749128;28;20209;-64
2023/07/03 07:33:14;;;;;;;20.10;7.07;;;20.50;59.90;;;;;;20748803;28;20787;-65
2023/07/03 07:43:16;;;;;;;16.80;7.70;;;20.40;59.90;;;;;;20748143;28;20244;-66
2023/07/03 07:53:18;;;;;;;19.70;6.70;;;20.40;59.90;;;;;;20747355;28;20272;-73
2023/07/03 08:03:20;;;;;;;12.93;6.40;;;20.40;60.20;;;;;;20748996;28;20244;-68
2023/07/03 08:13:22;;;;;;;18.60;6.60;;;20.60;60.60;;;;;;20762801;28;20267;-69
2023/07/03 08:23:24;;;;;;;16.00;6.67;;;21.10;59.90;;;;;;20762185;28;20205;-65
2023/07/03 08:33:26;;;;;;;13.30;5.27;;;21.20;59.50;;;;;;20761764;28;20329;-66
2023/07/03 08:43:37;;;;;;;17.43;5.73;;;21.30;58.50;;;;;;20760749;28;20244;-69
2023/07/03 08:53:43;;;;;;;13.07;4.73;;;20.90;58.70;;;;;;20760561;28;20576;-67
2023/07/03 09:04:08;;;;;;;11.00;3.80;;;21.30;58.50;;;;;;20758146;28;20295;-66
2023/07/03 09:14:18;;;;;;;10.80;4.00;;;21.40;55.90;;;;;;20757572;28;20231;-64
2023/07/03 09:24:29;;;;;;;6.70;2.97;;;21.30;55.20;;;;;;20757797;28;20292;-66
2023/07/03 09:35:01;;;;;;;6.00;2.73;;;21.40;54.20;;;;;;20757237;28;20347;-65
2023/07/03 09:45:15;;;;;;;6.23;2.50;;;21.30;53.10;;;;;;20805091;28;20193;-62
2023/07/03 09:55:17;;;;;;;5.60;2.80;;;21.50;52.10;;;;;;20837452;28;20236;-63
2023/07/03 10:05:30;;;;;;;9.93;3.03;;;21.70;51.00;;;;;;20836560;28;20231;-63
2023/07/03 10:15:39;;;;;;;9.27;2.90;;;21.90;49.00;;;;;;20836587;28;20240;-68
2023/07/03 10:25:47;;;;;;;14.93;3.27;;;21.90;48.60;;;;;;20834496;28;20211;-69
2023/07/03 10:35:50;;;;;;;12.10;3.23;;;21.90;49.00;;;;;;20834249;28;20247;-67
2023/07/03 10:45:53;;;;;;;11.77;3.20;;;22.10;49.00;;;;;;20832367;28;20209;-69
2023/07/03 10:56:08;;;;;;;10.37;2.90;;;22.10;50.20;;;;;;20832511;28;20725;-68
2023/07/03 11:06:35;;;;;;;9.47;4.23;;;22.40;49.90;;;;;;20831169;28;20240;-69
2023/07/03 11:17:11;;;;;;;7.17;2.40;;;22.70;49.90;;;;;;20831463;28;20236;-64
2023/07/03 11:27:27;;;;;;;14.67;2.97;;;23.10;49.70;;;;;;20830829;28;20275;-69
2023/07/03 11:37:48;;;;;;;7.97;2.90;;;22.80;48.70;;;;;;20829420;28;20239;-68
2023/07/03 11:47:53;;;;;;;4.87;2.50;;;22.80;49.30;;;;;;20830463;28;20209;-70
2023/07/03 11:57:56;;;;;;;6.53;2.63;;;22.50;49.60;;;;;;20828825;28;20726;-68
2023/07/03 12:08:18;;;;;;;5.10;2.30;;;22.90;49.20;;;;;;20919474;28;20235;-72
2023/07/03 12:18:20;;;;;;;5.80;2.80;;;23.10;48.70;;;;;;20994105;28;20593;-72
2023/07/03 12:28:22;;;;;;;8.10;2.83;;;23.60;48.50;;;;;;20994952;28;20203;-72
2023/07/03 12:38:23;;;;;;;7.50;3.07;;;23.70;47.60;;;;;;20992780;28;20322;-73
2023/07/03 12:48:25;;;;;;;6.03;3.07;;;23.60;48.00;;;;;;20992197;28;20298;-65
2023/07/03 12:58:27;;;;;;;7.97;2.90;;;23.90;47.60;;;;;;21005549;28;20601;-72
2023/07/03 13:08:29;;;;;;;8.43;2.90;;;24.20;47.00;;;;;;21005851;28;20231;-73
2023/07/03 13:18:30;;;;;;;7.60;3.00;;;23.90;46.70;;;;;;21005574;28;20270;-73
2023/07/03 13:29:00;;;;;;;5.50;2.80;;;23.80;46.30;;;;;;21005552;28;20217;-65
2023/07/03 13:39:24;;;;;;;6.97;2.90;;;24.00;46.30;;;;;;21004009;28;20305;-67
2023/07/03 13:49:26;;;;;;;5.27;2.63;;;24.00;46.60;;;;;;21003259;28;20204;-72
2023/07/03 13:59:31;;;;;;;9.13;3.13;;;24.40;46.40;;;;;;21002567;28;20231;-68
2023/07/03 14:09:32;;;;;;;9.40;2.90;;;24.00;47.30;;;;;;20869293;28;20248;-63
2023/07/03 14:19:34;;;;;;;9.87;2.57;;;24.30;47.50;;;;;;20835787;28;20715;-67
2023/07/03 14:29:36;;;;;;;4.40;2.40;;;24.30;47.20;;;;;;20833173;28;20219;-67
2023/07/03 14:39:37;;;;;;;11.60;2.70;;;24.00;48.00;;;;;;20833850;28;20240;-66
2023/07/03 14:49:39;;;;;;;7.83;2.57;;;24.70;47.20;;;;;;20833166;28;20328;-65
2023/07/03 14:59:43;;;;;;;6.40;2.50;;;24.40;47.30;;;;;;20833380;28;20232;-69
2023/07/03 15:09:44;;;;;;;8.10;2.00;;;24.90;47.40;;;;;;20831759;28;20243;-63
2023/07/03 15:19:46;;;;;;;25.53;3.10;;;25.80;46.10;;;;;;20830884;28;20641;-62
2023/07/03 15:29:48;;;;;;;3.20;2.00;;;25.80;46.90;;;;;;20830970;28;20303;-63
2023/07/03 15:39:50;;;;;;;14.63;3.93;;;25.10;47.60;;;;;;20830019;28;20331;-67
2023/07/03 15:49:55;;;;;;;13.87;2.60;;;24.80;48.70;;;;;;20829816;28;20375;-64
2023/07/03 15:59:57;;;;;;;7.70;1.90;;;25.70;48.60;;;;;;20829661;28;20240;-66
2023/07/03 16:09:59;;;;;;;12.13;2.07;;;26.30;47.20;;;;;;20811333;28;20260;-65
2023/07/03 16:20:06;;;;;;;2.35;1.65;;;26.00;48.40;;;;;;20828552;28;20236;-67
2023/07/03 16:30:11;;;;;;;2.88;1.55;;;28.50;46.10;;;;;;20839845;28;20239;-70
2023/07/03 16:40:13;;;;;;;3.72;1.55;;;27.50;45.00;;;;;;20843615;28;20263;-66
2023/07/03 16:50:15;;;;;;;2.67;1.57;;;26.80;45.70;;;;;;20843160;28;20205;-61
2023/07/03 17:00:17;;;;;;;2.60;1.63;;;26.50;46.40;;;;;;20842032;28;20251;-63
2023/07/03 17:10:19;;;;;;;3.10;1.40;;;25.80;47.30;;;;;;20840978;28;20268;-63
2023/07/03 17:20:21;;;;;;;7.80;1.90;;;26.00;47.30;;;;;;20842238;28;20229;-63
2023/07/03 17:30:25;;;;;;;2.03;1.42;;;26.50;46.90;;;;;;20840157;28;20231;-65
2023/07/03 17:40:27;;;;;;;9.85;1.60;;;27.40;45.80;;;;;;20838987;28;20271;-68
2023/07/03 17:50:29;;;;;;;4.20;1.63;;;29.60;43.60;;;;;;20841059;28;20634;-64
2023/07/03 18:00:31;;;;;;;2.38;1.73;;;29.10;42.80;;;;;;20837649;28;20268;-64
2023/07/03 18:10:34;;;;;;;3.03;1.70;;;26.20;46.70;;;;;;20837825;28;20237;-64
2023/07/03 18:20:36;;;;;;;3.60;1.50;;;25.10;48.80;;;;;;20850298;28;20342;-64
2023/07/03 18:30:37;;;;;;;3.43;1.90;;;24.30;50.50;;;;;;20832816;28;20244;-65
2023/07/03 18:40:39;;;;;;;3.13;1.50;;;23.70;51.90;;;;;;20831903;28;20278;-64
2023/07/03 18:50:41;;;;;;;2.57;1.60;;;23.20;53.20;;;;;;20829130;28;20464;-66
2023/07/03 19:00:44;;;;;;;2.80;1.93;;;23.10;54.80;;;;;;20904829;28;20235;-66
2023/07/03 19:10:45;;;;;;;2.23;1.60;;;22.80;55.30;;;;;;20889068;28;20319;-65
2023/07/03 19:20:47;;;;;;;3.00;1.70;;;22.60;55.70;;;;;;20830876;28;20711;-67
2023/07/03 19:30:57;;;;;;;4.17;2.43;;;22.40;56.40;;;;;;20831109;28;20660;-69
2023/07/03 19:40:59;;;;;;;4.70;1.70;;;22.30;56.80;;;;;;20829922;28;20642;-65
2023/07/03 19:51:04;;;;;;;2.37;1.60;;;22.20;57.30;;;;;;20829252;28;20201;-67
2023/07/03 20:01:06;;;;;;;2.97;1.73;;;22.10;58.10;;;;;;20852360;28;20650;-62
2023/07/03 20:11:09;;;;;;;3.27;1.80;;;22.00;58.70;;;;;;20845384;28;20233;-61
2023/07/03 20:21:11;;;;;;;5.23;1.80;;;22.00;59.50;;;;;;20941555;28;20230;-65
2023/07/03 20:31:14;;;;;;;5.07;1.80;;;21.80;60.50;;;;;;20941342;28;20207;-62
2023/07/03 20:41:16;;;;;;;3.03;1.80;;;21.70;61.90;;;;;;20926487;28;20271;-63
2023/07/03 20:51:21;;;;;;;5.70;1.77;;;21.60;63.10;;;;;;20907815;28;20302;-70
2023/07/03 21:01:30;;;;;;;3.17;1.70;;;21.40;64.30;;;;;;20925436;28;20239;-69
2023/07/03 21:11:35;;;;;;;5.23;1.70;;;21.30;65.30;;;;;;20923534;28;20235;-62
2023/07/03 21:21:37;;;;;;;3.60;1.60;;;21.20;66.50;;;;;;20923324;28;20242;-62
2023/07/03 21:31:39;;;;;;;3.03;1.80;;;21.00;67.50;;;;;;20922270;28;20210;-60
2023/07/03 21:41:41;;;;;;;2.60;1.60;;;20.80;68.70;;;;;;20920998;28;20234;-61
2023/07/03 21:51:44;;;;;;;2.40;1.73;;;20.60;70.20;;;;;;20921090;28;20215;-61
2023/07/03 22:01:50;;;;;;;2.23;1.63;;;20.40;71.90;;;;;;20920498;28;20274;-59
2023/07/03 22:11:52;;;;;;;2.63;1.90;;;20.20;73.90;;;;;;20919700;28;20264;-60
2023/07/03 22:21:54;;;;;;;4.83;1.90;;;20.10;76.10;;;;;;20915483;28;20325;-60
2023/07/03 22:31:56;;;;;;;2.23;1.80;;;20.00;78.20;;;;;;20912842;28;20207;-61
2023/07/03 22:41:58;;;;;;;2.87;1.80;;;19.90;79.00;;;;;;20917535;28;20243;-60
2023/07/03 22:52:00;;;;;;;4.73;2.23;;;19.90;80.80;;;;;;20916545;28;20203;-60
2023/07/03 23:02:02;;;;;;;3.57;2.00;;;21.20;83.70;;;;;;20915747;28;20300;-60
2023/07/03 23:12:05;;;;;;;4.33;2.17;;;19.80;83.90;;;;;;20915661;28;20258;-60
2023/07/03 23:22:07;;;;;;;4.63;1.90;;;19.80;84.60;;;;;;20914251;28;20689;-67
2023/07/03 23:32:09;;;;;;;3.20;2.20;;;19.70;86.50;;;;;;20912977;28;20216;-64
2023/07/03 23:42:12;;;;;;;4.77;2.40;;;19.40;88.20;;;;;;20913237;28;20583;-60
2023/07/03 23:52:14;;;;;;;2.77;2.10;;;19.40;89.60;;;;;;20912552;28;20207;-60
